UBBB/BAK METAR and TAF weather

Enter ICAO airport designator
Station Type Date Time Source
UBBB METAR 2023/02/06 00:30 UTC NOAA

UBBB 060030Z 32008KT 9999 FEW011 BKN026 04/02 Q1017 NOSIG


Station Type Date Time Source
UBBB Decoded METAR 2023/02/06 00:30 UTC NOAA

Baku / Bine Airport, Azerbaijan (UBBB) 40-27N 050-04E -1M
Feb 05, 2023 - 07:30 PM EST / 2023.02.06 0030 UTC
Wind: from the NW (320 degrees) at 9 MPH (8 KT):0
Visibility: greater than 7 mile(s):0
Sky conditions: mostly cloudy
Temperature: 39 F (4 C)
Dew Point: 35 F (2 C)
Relative Humidity: 86%
Pressure (altimeter): 30.03 in. Hg (1017 hPa)
ob: UBBB 060030Z 32008KT 9999 FEW011 BKN026 04/02 Q1017 NOSIG
cycle: 0

Station Type Date Time Source
UBBB TAF 2023/02/05 18:03 UTC NOAA

TAF TAF UBBB 051701Z 0518/0618 36010KT 9999 FEW010 BKN030 TX10/0610Z TN02/0602Z
TEMPO 0518/0601 32005KT 6000 SCT005
TEMPO 0601/0608 VRB04KT SCT004 BKN020
TEMPO 0608/0612 04014KT

Example: see airport list